Wednesday, January 17, 2018, 6:28 AM EST
Back to Local

KBED, Bedford Hanscom Field

Location: Concord, MA, United States Lat: 42.467
Local Time: 6:28 AM EST (11:28 GMT) Lon: -71.3
Time Zone: US/Eastern Elev: 134 ft

Show me the last for .
Show Decoded

2018-01-17 05:48 METAR KBED 171048Z AUTO 07003KT 1SM R11/6000VP6000FT -SN BR VV014 M01/M02 A3032
                 RMK AO2 P0000 T10111017 =
2018-01-17 05:26 METAR KBED 171026Z AUTO 00000KT 1 1/4SM -SN BR OVC020 M01/M02 A3033 RMK AO2
                 P0000 T10061017 =
2018-01-17 05:13 METAR KBED 171013Z AUTO 00000KT 2 1/2SM -SN BR OVC028 M01/M02 A3033 RMK AO2
                 P0000 T10061022 =
2018-01-17 04:56 METAR KBED 170956Z AUTO 06003KT 6SM -SN BR OVC038 M01/M02 A3033 RMK AO2 SNB49
                 SLP286 P0000 T10061022 =
2018-01-17 03:56 METAR KBED 170856Z AUTO 00000KT 10SM OVC048 M01/M03 A3034 RMK AO2 SLP289
                 T10061028 58009 =
2018-01-17 02:56 METAR KBED 170756Z AUTO 00000KT 10SM OVC035 M01/M03 A3036 RMK AO2 SLP297
                 T10111028 =
2018-01-17 02:39 METAR KBED 170739Z AUTO 00000KT 10SM OVC033 M01/M03 A3037 RMK AO2 T10061028 =
2018-01-17 02:10 METAR KBED 170710Z AUTO 00000KT 10SM BKN028 OVC049 M01/M03 A3037 RMK AO2
                 T10061028 =
2018-01-17 01:56 METAR KBED 170656Z AUTO 00000KT 10SM SCT030 OVC049 M01/M03 A3037 RMK AO2 SLP300
                 T10061028 =
2018-01-17 00:56 METAR KBED 170556Z AUTO 14004KT 10SM BKN032 OVC070 M01/M03 A3037 RMK AO2 SLP300
                 T10061028 10000 21006 58015 =
2018-01-16 23:56 METAR KBED 170456Z AUTO 00000KT 10SM BKN033 OVC100 00/M03 A3038 RMK AO2 SLP305
                 T00001033 400061083 =
2018-01-16 22:56 METAR KBED 170356Z AUTO 00000KT 10SM OVC031 00/M03 A3040 RMK AO2 SLP311
                 T00001033 =
2018-01-16 21:56 METAR KBED 170256Z 15003KT 10SM OVC030 00/M03 A3041 RMK AO2 SLP315 T00001033
                 58009 =
2018-01-16 20:56 METAR KBED 170156Z 17003KT 10SM OVC030 00/M04 A3043 RMK AO2 SLP321 T00001039 =
2018-01-16 19:56 METAR KBED 170056Z 15003KT 10SM OVC030 00/M05 A3044 RMK AO2 SLP323 T00001050 =
2018-01-16 18:56 METAR KBED 162356Z 00000KT 10SM BKN030 OVC070 00/M06 A3044 RMK AO2 SLP324
                 T00001061 10006 21011 53001 =
2018-01-16 17:56 METAR KBED 162256Z 00000KT 10SM OVC085 M01/M05 A3043 RMK AO2 SLP322 T10061050 =
2018-01-16 16:56 METAR KBED 162156Z 00000KT 10SM OVC095 00/M06 A3044 RMK AO2 SLP323 T00001056 =
2018-01-16 15:56 METAR KBED 162056Z 22005KT 10SM OVC085 01/M06 A3044 RMK AO2 SLP323 T00061061
                 56004 =
2018-01-16 14:56 METAR KBED 161956Z 23008KT 10SM OVC090 01/M06 A3044 RMK AO2 SLP325 T00061061 =
2018-01-16 13:56 METAR KBED 161856Z 22007KT 10SM SCT025 BKN090 00/M07 A3044 RMK AO2 SLP324
                 T00001072 =
2018-01-16 12:56 METAR KBED 161756Z 22007KT 10SM SCT029 SCT160 M01/M08 A3045 RMK AO2 SLP328
                 T10061083 10000 21083 58021 =
2018-01-16 11:56 METAR KBED 161656Z 00000KT 10SM SCT029 SCT160 M03/M10 A3048 RMK AO2 SLP339
                 T10281100 =
2018-01-16 11:53 METAR KBED 161653Z 18003KT 10SM SCT029 SCT160 M03/M10 A3048 RMK AO2 =
2018-01-16 10:56 METAR KBED 161556Z 00000KT 10SM OVC029 M03/M10 A3051 RMK AO2 SLP350 T10331100 =
2018-01-16 09:56 METAR KBED 161456Z VRB03KT 10SM BKN035 M04/M11 A3052 RMK AO2 SLP354 T10441106
                 53006 =
2018-01-16 09:29 METAR KBED 161429Z 00000KT 10SM SCT029 BKN035 M05/M11 A3053 RMK AO2 T10501111 =
2018-01-16 09:18 METAR KBED 161418Z 00000KT 10SM BKN029 M05/M10 A3053 RMK AO2 T10501100 =
2018-01-16 08:56 METAR KBED 161356Z 30003KT 10SM BKN030 M06/M11 A3053 RMK AO2 SLP355 T10561106 =
2018-01-16 07:56 METAR KBED 161256Z 00000KT 10SM SCT100 M07/M11 A3050 RMK AO2 SLP346 T10671111 =
2018-01-16 06:56 METAR KBED 161156Z 04004KT 10SM BKN110 M08/M14 A3051 RMK AO2 SLP349 T10781139
                 11067 21078 53001 =

Support USWX by starting your Amazon purchase here.